Time;durP1;ratioP1;P1;durP2;ratioP2;P2;SDS_P1;SDS_P2;PMS_P1;PMS_P2;Temp;Humidity;BMP_temperature;BMP_pressure;BME280_temperature;BME280_humidity;BME280_pressure;Samples;Min_cycle;Max_cycle;Signal;HPM_P1;HPM_P2
2022/06/15 00:01:40;;;;;;;5.03;2.65;;;15.00;86.40;;;;;;5009612;28;20144;-79
2022/06/15 00:04:06;;;;;;;5.93;2.92;;;14.90;86.80;;;;;;5010632;28;20033;-79
2022/06/15 00:06:36;;;;;;;5.10;2.80;;;14.90;86.90;;;;;;5013290;28;20030;-79
2022/06/15 00:09:01;;;;;;;6.72;3.03;;;14.90;87.20;;;;;;5012862;28;20045;-78
2022/06/15 00:11:33;;;;;;;9.75;4.65;;;14.80;87.30;;;;;;5012589;28;20038;-79
2022/06/15 00:14:02;;;;;;;7.47;3.47;;;14.80;87.70;;;;;;5013361;28;20038;-78
2022/06/15 00:16:28;;;;;;;11.25;4.32;;;14.80;87.70;;;;;;5013128;28;20065;-78
2022/06/15 00:18:53;;;;;;;8.70;3.15;;;14.70;87.90;;;;;;5014205;28;20072;-78
2022/06/15 00:21:20;;;;;;;5.07;2.00;;;14.70;88.10;;;;;;5029040;28;20038;-78
2022/06/15 00:23:46;;;;;;;2.17;1.20;;;14.70;87.90;;;;;;5013037;28;20056;-78
2022/06/15 00:26:13;;;;;;;2.85;1.25;;;14.70;87.20;;;;;;5013027;28;20033;-78
2022/06/15 00:28:38;;;;;;;5.03;1.63;;;14.60;86.70;;;;;;5011675;28;20546;-79
2022/06/15 00:31:05;;;;;;;7.68;1.80;;;14.60;86.50;;;;;;5011181;28;20049;-78
2022/06/15 00:33:31;;;;;;;1.80;1.00;;;14.60;86.60;;;;;;5012968;28;20108;-78
2022/06/15 00:35:59;;;;;;;4.68;1.45;;;14.60;86.80;;;;;;5012530;28;20100;-79
2022/06/15 00:38:37;;;;;;;3.15;1.15;;;14.60;86.20;;;;;;5004622;28;20037;-79
2022/06/15 00:41:04;;;;;;;8.55;1.45;;;14.60;86.60;;;;;;5002383;28;20050;-78
2022/06/15 00:43:37;;;;;;;3.08;1.27;;;14.60;86.20;;;;;;5013256;28;20475;-79
2022/06/15 00:46:26;;;;;;;4.72;1.35;;;14.60;86.50;;;;;;5007993;28;20042;-78
2022/06/15 00:48:58;;;;;;;3.10;1.20;;;14.60;86.50;;;;;;5013142;28;20037;-80
2022/06/15 00:51:26;;;;;;;2.22;1.05;;;14.60;86.30;;;;;;5000561;28;20034;-78
2022/06/15 00:53:52;;;;;;;2.58;1.25;;;14.60;86.30;;;;;;5012309;28;20069;-81
2022/06/15 00:56:19;;;;;;;4.03;1.25;;;14.60;86.50;;;;;;5022855;28;20026;-81
2022/06/15 00:58:49;;;;;;;2.45;1.02;;;14.60;86.60;;;;;;5025187;28;20048;-80
2022/06/15 01:01:15;;;;;;;3.47;1.30;;;14.60;86.50;;;;;;5012893;28;20050;-80
2022/06/15 01:03:41;;;;;;;1.70;0.82;;;14.60;86.70;;;;;;5011236;28;20479;-80
2022/06/15 01:06:19;;;;;;;4.07;1.10;;;14.60;86.60;;;;;;5014455;28;20065;-79
2022/06/15 01:09:12;;;;;;;2.33;1.05;;;14.60;86.30;;;;;;5016551;28;20517;-79
2022/06/15 01:11:40;;;;;;;4.75;1.02;;;14.60;86.70;;;;;;5012486;28;20033;-80
2022/06/15 01:14:27;;;;;;;4.18;1.10;;;14.60;86.50;;;;;;5027542;28;20046;-81
2022/06/15 01:17:11;;;;;;;1.83;0.90;;;14.70;86.50;;;;;;5009793;28;20030;-81
2022/06/15 01:20:05;;;;;;;2.13;1.00;;;14.70;86.80;;;;;;5000852;28;20037;-79
2022/06/15 01:23:03;;;;;;;2.53;1.25;;;14.60;86.80;;;;;;5012406;28;20025;-79
2022/06/15 01:25:51;;;;;;;2.15;1.02;;;14.70;86.80;;;;;;5011720;28;20060;-80
2022/06/15 01:28:41;;;;;;;3.42;1.15;;;14.60;86.70;;;;;;5010794;28;20449;-80
2022/06/15 01:31:30;;;;;;;2.45;0.93;;;14.60;86.70;;;;;;5004614;28;20029;-79
2022/06/15 01:34:31;;;;;;;1.40;0.80;;;14.60;86.40;;;;;;5011574;28;20030;-79
2022/06/15 01:37:24;;;;;;;2.85;1.00;;;14.60;87.20;;;;;;5009522;28;20060;-80
2022/06/15 01:39:53;;;;;;;4.80;1.45;;;14.50;87.20;;;;;;5011425;28;20088;-80
2022/06/15 01:42:33;;;;;;;4.80;1.13;;;14.50;87.20;;;;;;5012288;28;20030;-79
2022/06/15 01:45:07;;;;;;;4.25;1.35;;;14.50;87.00;;;;;;5006419;28;20064;-80
2022/06/15 01:47:35;;;;;;;3.60;0.77;;;14.50;87.50;;;;;;5004872;28;20026;-80
2022/06/15 01:50:11;;;;;;;3.72;0.88;;;14.50;87.50;;;;;;5012077;28;20025;-80
2022/06/15 01:53:01;;;;;;;3.22;1.33;;;14.40;87.70;;;;;;5011817;28;20549;-79
2022/06/15 01:55:34;;;;;;;2.80;1.08;;;14.40;87.70;;;;;;5005500;28;20041;-79
2022/06/15 01:58:04;;;;;;;2.58;1.50;;;14.40;88.00;;;;;;5002406;28;20474;-80
2022/06/15 02:00:30;;;;;;;6.07;1.10;;;14.40;88.00;;;;;;5010396;28;20037;-79
2022/06/15 02:03:08;;;;;;;3.22;1.20;;;14.30;88.10;;;;;;5010661;28;20037;-82
2022/06/15 02:05:46;;;;;;;5.05;1.42;;;14.30;88.40;;;;;;5009522;28;20026;-79
2022/06/15 02:08:18;;;;;;;4.72;1.38;;;14.30;88.40;;;;;;5016838;28;20030;-79
2022/06/15 02:10:57;;;;;;;5.03;1.02;;;14.30;88.90;;;;;;5010494;28;20121;-79
2022/06/15 02:13:35;;;;;;;18.23;1.85;;;14.20;89.10;;;;;;5009151;28;20030;-79
2022/06/15 02:16:09;;;;;;;5.78;1.55;;;14.20;89.30;;;;;;5010841;28;20042;-78
2022/06/15 02:18:36;;;;;;;4.00;1.30;;;14.20;89.20;;;;;;5019349;28;20026;-79
2022/06/15 02:21:08;;;;;;;3.63;1.40;;;14.10;89.60;;;;;;5010033;28;20045;-79
2022/06/15 02:23:37;;;;;;;3.72;1.55;;;14.10;89.70;;;;;;5011371;28;20037;-79
2022/06/15 02:26:04;;;;;;;3.42;1.40;;;14.10;89.90;;;;;;5009972;28;20038;-79
2022/06/15 02:28:36;;;;;;;2.22;1.33;;;14.10;90.00;;;;;;5010182;28;20114;-79
2022/06/15 02:31:01;;;;;;;2.67;1.00;;;14.10;90.20;;;;;;5010716;28;20087;-79
2022/06/15 02:33:31;;;;;;;4.50;1.75;;;14.10;90.10;;;;;;5010631;28;20037;-79
2022/06/15 02:35:58;;;;;;;5.15;2.00;;;14.00;90.20;;;;;;5010949;28;20030;-79
2022/06/15 02:38:26;;;;;;;3.20;1.20;;;14.00;90.30;;;;;;5009032;28;20054;-79
2022/06/15 02:40:51;;;;;;;2.83;1.40;;;14.00;90.50;;;;;;5010344;28;20108;-79
2022/06/15 02:43:21;;;;;;;3.30;1.60;;;14.00;90.60;;;;;;5011193;28;20506;-79
2022/06/15 02:45:48;;;;;;;3.05;1.48;;;13.90;90.80;;;;;;5005967;28;20038;-79
2022/06/15 02:48:15;;;;;;;2.05;1.40;;;13.90;90.90;;;;;;5003119;28;20112;-80
2022/06/15 02:50:49;;;;;;;2.00;1.50;;;13.90;90.90;;;;;;5010950;28;20034;-80
2022/06/15 02:53:18;;;;;;;4.93;1.30;;;13.90;91.00;;;;;;5011227;28;20054;-81
2022/06/15 02:55:46;;;;;;;2.80;1.42;;;13.80;91.30;;;;;;5008138;28;20026;-80
2022/06/15 02:58:24;;;;;;;4.03;1.40;;;13.80;91.40;;;;;;5008712;28;20025;-79
2022/06/15 03:00:49;;;;;;;3.70;1.30;;;13.80;91.50;;;;;;5010490;28;20049;-79
2022/06/15 03:03:15;;;;;;;4.40;1.50;;;13.80;91.60;;;;;;5012138;28;20450;-79
2022/06/15 03:05:41;;;;;;;4.00;1.55;;;13.80;91.80;;;;;;5007617;28;20502;-80
2022/06/15 03:08:06;;;;;;;1.95;1.17;;;13.70;91.90;;;;;;5010655;28;20025;-80
2022/06/15 03:10:32;;;;;;;3.40;1.58;;;13.70;92.10;;;;;;5026295;28;20030;-79
2022/06/15 03:12:57;;;;;;;2.72;1.27;;;13.70;92.20;;;;;;5025592;28;20030;-80
2022/06/15 03:15:23;;;;;;;2.20;1.35;;;13.60;92.30;;;;;;5009970;28;20099;-80
2022/06/15 03:17:51;;;;;;;5.07;1.42;;;13.60;92.50;;;;;;5010106;28;20036;-79
2022/06/15 03:20:17;;;;;;;4.30;1.80;;;13.60;92.50;;;;;;5010176;28;20061;-80
2022/06/15 03:22:42;;;;;;;4.47;1.45;;;13.60;92.60;;;;;;5010537;28;20076;-80
2022/06/15 03:25:08;;;;;;;3.40;2.20;;;13.50;92.90;;;;;;5010576;28;20100;-79
2022/06/15 03:27:33;;;;;;;5.32;1.88;;;13.50;92.80;;;;;;5009474;28;20482;-79
2022/06/15 03:30:00;;;;;;;5.40;1.88;;;13.50;92.80;;;;;;5009434;28;20421;-81
2022/06/15 03:32:25;;;;;;;4.47;2.28;;;13.50;92.90;;;;;;5009916;28;20054;-80
2022/06/15 03:34:51;;;;;;;5.25;1.70;;;13.50;93.00;;;;;;5024566;28;20029;-80
2022/06/15 03:37:16;;;;;;;5.30;1.50;;;13.50;93.40;;;;;;5010492;28;20022;-79
2022/06/15 03:39:42;;;;;;;3.03;1.27;;;13.50;93.50;;;;;;5010158;28;20517;-79
2022/06/15 03:42:16;;;;;;;4.97;2.05;;;13.50;93.50;;;;;;5010030;28;20025;-79
2022/06/15 03:44:42;;;;;;;3.67;1.70;;;13.50;93.40;;;;;;5005830;28;20386;-79
2022/06/15 03:47:13;;;;;;;3.88;1.63;;;13.50;93.40;;;;;;5009660;28;20038;-79
2022/06/15 03:49:38;;;;;;;5.28;1.42;;;13.50;93.40;;;;;;5010706;28;20022;-80
2022/06/15 03:52:05;;;;;;;4.53;2.00;;;13.50;93.60;;;;;;5014975;28;20063;-80
2022/06/15 03:54:31;;;;;;;4.93;1.67;;;13.50;93.50;;;;;;5024318;28;20037;-80
2022/06/15 03:56:57;;;;;;;4.65;2.45;;;13.50;93.40;;;;;;5022406;28;20026;-79
2022/06/15 03:59:23;;;;;;;4.30;1.52;;;13.60;93.60;;;;;;5016211;28;20046;-80
2022/06/15 04:01:48;;;;;;;4.15;1.88;;;13.60;93.50;;;;;;5010136;28;20078;-79
2022/06/15 04:04:14;;;;;;;6.95;1.55;;;13.60;93.50;;;;;;5009282;28;20033;-79
2022/06/15 04:06:41;;;;;;;4.03;1.92;;;13.60;93.60;;;;;;5024556;28;20103;-79
2022/06/15 04:09:06;;;;;;;3.85;2.17;;;13.60;93.60;;;;;;5008795;28;20034;-79
2022/06/15 04:14:16;;;;;;;8.32;2.17;;;13.60;93.70;;;;;;5010310;28;20041;-79
2022/06/15 04:16:41;;;;;;;2.55;1.55;;;13.60;93.80;;;;;;5011202;28;20030;-79
2022/06/15 04:19:08;;;;;;;5.38;1.60;;;13.70;93.80;;;;;;5010179;28;20325;-79
2022/06/15 04:21:34;;;;;;;3.67;1.70;;;13.70;93.80;;;;;;5008804;28;20095;-79
2022/06/15 04:24:00;;;;;;;4.63;1.58;;;13.70;93.80;;;;;;5010052;28;20470;-81
2022/06/15 04:26:25;;;;;;;2.72;1.50;;;13.80;93.70;;;;;;5024498;28;20040;-79
2022/06/15 04:28:51;;;;;;;2.63;1.30;;;13.80;93.80;;;;;;5010322;28;20030;-79
2022/06/15 04:31:16;;;;;;;4.05;1.90;;;13.90;93.70;;;;;;5007817;28;20041;-80
2022/06/15 04:33:42;;;;;;;3.83;1.67;;;13.90;93.50;;;;;;5009976;28;20026;-80
2022/06/15 04:36:09;;;;;;;3.67;2.17;;;13.90;93.60;;;;;;5021258;28;20052;-81
2022/06/15 04:38:34;;;;;;;5.68;1.90;;;14.00;93.70;;;;;;5029739;28;20079;-80
2022/06/15 04:41:02;;;;;;;2.65;1.77;;;14.10;93.60;;;;;;5018553;28;20046;-79
2022/06/15 04:43:28;;;;;;;3.75;1.77;;;14.10;93.50;;;;;;5009657;28;20026;-80
2022/06/15 04:45:53;;;;;;;4.07;2.40;;;14.20;93.40;;;;;;5009374;28;20450;-81
2022/06/15 04:48:19;;;;;;;5.10;1.58;;;14.20;93.50;;;;;;5010167;28;20025;-79
2022/06/15 04:50:44;;;;;;;4.03;1.73;;;14.30;93.50;;;;;;5009438;28;20511;-81
2022/06/15 04:53:10;;;;;;;8.32;2.65;;;14.30;93.90;;;;;;5012498;28;20125;-79
2022/06/15 04:55:36;;;;;;;7.97;2.42;;;14.40;93.40;;;;;;5012377;28;20073;-80
2022/06/15 04:58:02;;;;;;;3.92;2.47;;;14.40;93.20;;;;;;5017443;28;20030;-81
2022/06/15 05:00:34;;;;;;;5.90;1.95;;;14.50;93.00;;;;;;5026416;28;20482;-81
2022/06/15 05:03:00;;;;;;;8.25;2.35;;;14.50;92.90;;;;;;5032958;28;20117;-80
2022/06/15 05:05:25;;;;;;;5.10;2.42;;;14.60;92.70;;;;;;5032483;28;20116;-80
2022/06/15 05:07:52;;;;;;;4.07;1.58;;;14.60;92.80;;;;;;5032841;28;20049;-80
2022/06/15 05:10:23;;;;;;;6.32;1.60;;;14.70;92.60;;;;;;5031754;28;20029;-81
2022/06/15 05:12:49;;;;;;;3.25;1.85;;;14.70;92.50;;;;;;5011422;28;20030;-79
2022/06/15 05:15:16;;;;;;;2.53;1.42;;;14.80;92.20;;;;;;5011413;28;20405;-79
2022/06/15 05:17:44;;;;;;;3.75;1.73;;;14.90;92.10;;;;;;5013779;28;20126;-80
2022/06/15 05:20:11;;;;;;;6.18;1.92;;;14.90;91.80;;;;;;5009609;28;20569;-80
2022/06/15 05:22:37;;;;;;;3.72;2.00;;;15.00;91.80;;;;;;5013823;28;20034;-79
2022/06/15 05:25:07;;;;;;;3.03;1.88;;;15.00;91.60;;;;;;5011962;28;20087;-79
2022/06/15 05:27:33;;;;;;;6.93;2.03;;;15.10;91.50;;;;;;5010765;28;20033;-80
2022/06/15 05:29:59;;;;;;;2.95;1.90;;;15.10;91.60;;;;;;5010954;28;20040;-80
2022/06/15 05:32:25;;;;;;;6.60;1.92;;;15.20;91.80;;;;;;5011079;28;20081;-81
2022/06/15 05:34:50;;;;;;;7.22;2.30;;;15.20;91.40;;;;;;5010066;28;20018;-79
2022/06/15 05:37:16;;;;;;;4.07;2.03;;;15.20;91.50;;;;;;5022493;28;20438;-81
2022/06/15 05:39:42;;;;;;;4.90;1.92;;;15.20;91.10;;;;;;5006928;28;20049;-80
2022/06/15 05:42:08;;;;;;;3.95;1.60;;;15.30;91.00;;;;;;5009612;28;20056;-80
2022/06/15 05:47:06;;;;;;;4.35;1.67;;;15.50;91.40;;;;;;5007205;28;20037;-84
2022/06/15 05:49:34;;;;;;;3.42;1.45;;;15.50;91.00;;;;;;5018886;28;20058;-78
2022/06/15 05:52:01;;;;;;;7.53;1.60;;;15.50;91.00;;;;;;5011573;28;20021;-78
2022/06/15 05:54:26;;;;;;;2.60;1.48;;;15.60;90.80;;;;;;5010850;28;20068;-78
2022/06/15 05:56:52;;;;;;;4.97;2.00;;;15.70;91.00;;;;;;5010568;28;20053;-78
2022/06/15 05:59:17;;;;;;;5.25;1.90;;;15.70;90.50;;;;;;5011974;28;20080;-78
2022/06/15 06:01:43;;;;;;;6.15;1.63;;;15.80;90.60;;;;;;5011209;28;20060;-78
2022/06/15 06:04:15;;;;;;;4.55;1.73;;;16.00;90.50;;;;;;5012061;28;20030;-78
2022/06/15 06:06:40;;;;;;;6.93;1.88;;;16.10;90.70;;;;;;5010512;28;20474;-78
2022/06/15 06:09:06;;;;;;;2.97;1.85;;;16.20;90.50;;;;;;5012442;28;20053;-78
2022/06/15 06:11:31;;;;;;;4.05;1.73;;;16.30;90.20;;;;;;5016984;28;20104;-78
2022/06/15 06:13:57;;;;;;;4.07;1.50;;;16.40;89.50;;;;;;5012269;28;20033;-78
2022/06/15 06:16:23;;;;;;;6.80;2.03;;;16.40;89.70;;;;;;5010531;28;20080;-78
2022/06/15 06:18:50;;;;;;;3.45;1.52;;;16.50;89.20;;;;;;5010669;28;20030;-78
2022/06/15 06:21:15;;;;;;;3.20;1.40;;;16.70;89.10;;;;;;5011828;28;20080;-78
2022/06/15 06:23:41;;;;;;;3.30;1.75;;;16.80;88.60;;;;;;5012017;28;20105;-79
2022/06/15 06:26:13;;;;;;;4.93;1.77;;;17.00;88.30;;;;;;5017699;28;20080;-77
2022/06/15 06:28:39;;;;;;;;;;;17.10;87.60;;;;;;4994289;28;20026;-78
2022/06/15 06:31:06;;;;;;;3.28;1.60;;;17.30;87.10;;;;;;4999708;28;19916;-78
2022/06/15 06:33:34;;;;;;;4.35;1.50;;;17.50;86.60;;;;;;5010678;28;20129;-78
2022/06/15 06:36:04;;;;;;;5.00;1.38;;;17.60;86.20;;;;;;5008828;28;20029;-84
2022/06/15 06:38:30;;;;;;;3.50;1.40;;;17.70;85.90;;;;;;5002493;28;20037;-77
2022/06/15 06:40:56;;;;;;;3.85;1.52;;;17.80;86.00;;;;;;5004433;28;20041;-78
2022/06/15 06:43:22;;;;;;;4.07;1.40;;;17.90;85.10;;;;;;5007608;28;20029;-77
2022/06/15 06:45:49;;;;;;;3.42;1.20;;;17.90;85.00;;;;;;5016592;28;21662;-78
2022/06/15 06:48:16;;;;;;;1.83;1.00;;;18.10;85.20;;;;;;5000213;28;20056;-78
2022/06/15 06:50:42;;;;;;;4.85;1.30;;;18.20;84.60;;;;;;5008485;28;20038;-78
2022/06/15 06:53:09;;;;;;;4.13;1.42;;;18.30;84.80;;;;;;5009124;28;20040;-77
2022/06/15 06:55:35;;;;;;;2.08;1.23;;;18.40;83.30;;;;;;5005710;28;20022;-78
2022/06/15 06:58:01;;;;;;;3.35;0.98;;;18.60;84.40;;;;;;5009969;28;20105;-78
2022/06/15 07:00:28;;;;;;;4.15;1.58;;;18.70;84.30;;;;;;5010108;28;20037;-78
2022/06/15 07:02:54;;;;;;;2.85;1.45;;;18.80;82.80;;;;;;5008128;28;20399;-78
2022/06/15 07:05:20;;;;;;;2.90;1.05;;;19.00;82.20;;;;;;5015262;28;20038;-78
2022/06/15 07:07:46;;;;;;;2.22;1.20;;;19.10;81.20;;;;;;5004976;28;20484;-78
2022/06/15 07:10:12;;;;;;;6.22;1.40;;;19.20;81.30;;;;;;5012298;28;20597;-78
2022/06/15 07:12:38;;;;;;;3.80;1.60;;;19.50;79.80;;;;;;5009489;28;20061;-78
2022/06/15 07:15:08;;;;;;;6.82;1.20;;;19.60;78.60;;;;;;5020700;28;20041;-78
2022/06/15 07:17:33;;;;;;;5.47;1.27;;;19.80;77.80;;;;;;5001175;28;20064;-78
2022/06/15 07:19:59;;;;;;;3.40;0.90;;;20.00;79.20;;;;;;5008298;28;20175;-78
2022/06/15 07:22:24;;;;;;;2.05;1.02;;;20.10;78.00;;;;;;5009776;28;20038;-78
2022/06/15 07:24:50;;;;;;;3.20;1.00;;;20.30;77.20;;;;;;5006036;28;20026;-78
2022/06/15 07:27:16;;;;;;;2.30;0.93;;;20.30;76.00;;;;;;5005708;28;20037;-78
2022/06/15 07:29:43;;;;;;;2.20;1.10;;;20.50;77.10;;;;;;5005299;28;20087;-78
2022/06/15 07:32:09;;;;;;;1.45;0.80;;;20.70;76.30;;;;;;5016092;28;20026;-78
2022/06/15 07:34:35;;;;;;;2.45;1.00;;;20.90;76.40;;;;;;5008729;28;20038;-78
2022/06/15 07:37:00;;;;;;;4.53;0.98;;;21.10;75.40;;;;;;5013792;28;20398;-78
2022/06/15 07:39:27;;;;;;;4.68;1.10;;;21.20;76.10;;;;;;5008022;28;20037;-78
2022/06/15 07:41:55;;;;;;;2.05;0.80;;;21.40;74.90;;;;;;5006261;28;20037;-79
2022/06/15 07:44:21;;;;;;;3.47;0.98;;;21.60;75.00;;;;;;5008299;28;20046;-78
2022/06/15 07:46:47;;;;;;;3.15;1.73;;;21.80;73.10;;;;;;5009566;28;20681;-79
2022/06/15 07:52:02;;;;;;;3.75;1.05;;;22.10;72.00;;;;;;5008670;28;20163;-83
2022/06/15 07:54:28;;;;;;;2.88;1.17;;;22.30;71.70;;;;;;5008770;28;20037;-79
2022/06/15 07:56:55;;;;;;;4.20;1.10;;;22.40;71.70;;;;;;5012789;28;20487;-79
2022/06/15 07:59:22;;;;;;;1.95;0.90;;;22.50;70.60;;;;;;5018287;28;20053;-78
2022/06/15 08:01:48;;;;;;;4.20;1.00;;;22.50;71.00;;;;;;5010084;28;20030;-79
2022/06/15 08:04:15;;;;;;;3.85;1.10;;;22.60;70.90;;;;;;5008964;28;20512;-78
2022/06/15 08:06:43;;;;;;;4.18;0.77;;;22.70;70.30;;;;;;5009506;28;20160;-76
2022/06/15 08:09:10;;;;;;;2.85;1.20;;;22.90;68.80;;;;;;5009033;28;20075;-77
2022/06/15 08:11:37;;;;;;;3.45;1.05;;;23.00;68.90;;;;;;5009941;28;20120;-77
2022/06/15 08:14:03;;;;;;;1.25;0.70;;;23.20;69.40;;;;;;5010345;28;20045;-78
2022/06/15 08:16:30;;;;;;;2.35;0.80;;;23.20;68.30;;;;;;5009144;28;20058;-78
2022/06/15 08:18:58;;;;;;;2.70;1.15;;;23.40;69.30;;;;;;5010243;28;20030;-78
2022/06/15 08:21:27;;;;;;;4.00;0.90;;;23.60;67.90;;;;;;5008418;28;20125;-78
2022/06/15 08:23:55;;;;;;;2.45;0.73;;;23.70;68.00;;;;;;5010141;28;20029;-78
2022/06/15 08:26:25;;;;;;;4.38;1.00;;;23.80;67.10;;;;;;5009408;28;20034;-78
2022/06/15 08:28:54;;;;;;;1.83;0.93;;;23.90;65.90;;;;;;5013833;28;20398;-79
2022/06/15 08:31:20;;;;;;;1.75;0.80;;;24.10;65.20;;;;;;5013878;28;20102;-78
2022/06/15 08:33:46;;;;;;;3.63;0.55;;;24.20;64.50;;;;;;5013840;28;20037;-79
2022/06/15 08:36:12;;;;;;;4.00;0.60;;;24.20;62.50;;;;;;5012988;28;20390;-78
2022/06/15 08:38:39;;;;;;;2.15;0.70;;;24.30;64.10;;;;;;5012705;28;20446;-78
2022/06/15 08:41:08;;;;;;;1.63;0.73;;;24.50;62.80;;;;;;5013496;28;20037;-78
2022/06/15 08:44:03;;;;;;;2.35;0.60;;;24.60;64.50;;;;;;5013948;28;20038;-78
2022/06/15 08:46:54;;;;;;;3.00;0.63;;;24.80;62.80;;;;;;5013190;28;20030;-78
2022/06/15 08:49:33;;;;;;;4.70;0.95;;;24.90;63.30;;;;;;5013815;28;20052;-78
2022/06/15 08:52:04;;;;;;;2.05;0.70;;;25.10;63.80;;;;;;5013252;28;20498;-77
2022/06/15 08:54:40;;;;;;;1.85;0.70;;;25.20;61.60;;;;;;5012219;28;20489;-78
2022/06/15 08:57:24;;;;;;;9.15;0.93;;;25.30;59.20;;;;;;5012857;28;20479;-79
2022/06/15 08:59:52;;;;;;;1.80;0.77;;;25.30;61.10;;;;;;5013374;28;20386;-77
2022/06/15 09:02:50;;;;;;;4.35;1.15;;;25.40;60.30;;;;;;5013047;28;20064;-78
2022/06/15 09:05:46;;;;;;;5.25;0.70;;;25.60;62.00;;;;;;4993686;28;20031;-78
2022/06/15 09:08:52;;;;;;;1.15;0.52;;;25.80;62.90;;;;;;4993915;28;20105;-78
2022/06/15 09:11:33;;;;;;;3.92;0.85;;;26.00;60.50;;;;;;4993858;28;20054;-78
2022/06/15 09:14:44;;;;;;;2.15;0.70;;;26.10;59.90;;;;;;4993641;28;20030;-78
2022/06/15 09:17:16;;;;;;;5.15;0.50;;;26.10;58.70;;;;;;4977040;28;20037;-78
2022/06/15 09:20:04;;;;;;;2.75;0.60;;;26.10;60.00;;;;;;4991314;28;20491;-77
2022/06/15 09:22:34;;;;;;;2.92;0.68;;;26.10;60.80;;;;;;5005254;28;20498;-78
2022/06/15 09:25:11;;;;;;;3.20;0.80;;;26.00;57.80;;;;;;5013563;28;20041;-78
2022/06/15 09:28:03;;;;;;;3.67;0.75;;;26.10;58.10;;;;;;5027083;28;20030;-78
2022/06/15 09:30:33;;;;;;;2.20;0.50;;;26.20;57.30;;;;;;5013534;28;20034;-77
2022/06/15 09:33:05;;;;;;;2.95;0.60;;;26.40;58.10;;;;;;5012353;28;20083;-78
2022/06/15 09:35:37;;;;;;;2.80;1.10;;;26.60;57.20;;;;;;5012493;28;20026;-77
2022/06/15 09:38:09;;;;;;;1.27;0.65;;;26.70;56.60;;;;;;5012191;28;20069;-77
2022/06/15 09:40:50;;;;;;;2.13;0.68;;;26.90;53.40;;;;;;5028136;28;20074;-77
2022/06/15 09:43:45;;;;;;;2.35;0.80;;;27.00;53.40;;;;;;5027716;28;20025;-78
2022/06/15 09:46:37;;;;;;;6.63;0.60;;;27.10;53.90;;;;;;5012099;28;20030;-78
2022/06/15 09:49:21;;;;;;;4.38;0.65;;;27.30;54.60;;;;;;5012624;28;20026;-78
2022/06/15 09:52:36;;;;;;;3.47;0.85;;;27.40;53.70;;;;;;5012243;28;20033;-78
2022/06/15 09:55:26;;;;;;;3.08;0.70;;;27.50;54.60;;;;;;5012561;28;20022;-78
2022/06/15 09:57:54;;;;;;;0.85;0.60;;;27.70;54.60;;;;;;5012443;28;20040;-77
2022/06/15 10:00:20;;;;;;;2.33;0.65;;;27.80;53.10;;;;;;5012623;28;20041;-78
2022/06/15 10:02:49;;;;;;;2.13;0.50;;;27.90;55.30;;;;;;5027208;28;20045;-78
2022/06/15 10:05:30;;;;;;;6.28;0.60;;;28.00;57.50;;;;;;5011755;28;20030;-78
2022/06/15 10:07:58;;;;;;;2.10;0.60;;;28.00;53.30;;;;;;5012254;28;20112;-78
2022/06/15 10:10:30;;;;;;;2.10;0.60;;;28.20;56.70;;;;;;5012132;28;20034;-78
2022/06/15 10:13:02;;;;;;;1.33;0.43;;;28.10;54.60;;;;;;5011617;28;20449;-78
2022/06/15 10:15:54;;;;;;;1.40;0.63;;;28.20;52.70;;;;;;5011452;28;20037;-77
2022/06/15 10:18:35;;;;;;;2.55;0.60;;;28.20;53.70;;;;;;5011322;28;20036;-78
2022/06/15 10:21:08;;;;;;;7.50;0.75;;;28.20;55.60;;;;;;5026491;28;20112;-78
2022/06/15 10:23:49;;;;;;;1.63;0.50;;;28.40;55.60;;;;;;5011822;28;20029;-78
2022/06/15 10:26:40;;;;;;;4.45;0.90;;;28.50;56.30;;;;;;5009178;28;20368;-78
2022/06/15 10:29:14;;;;;;;4.82;0.70;;;28.60;53.00;;;;;;5011071;28;20037;-77
2022/06/15 10:31:40;;;;;;;2.00;0.50;;;28.80;53.70;;;;;;5008332;28;20116;-77
2022/06/15 10:34:41;;;;;;;1.92;0.95;;;28.80;53.40;;;;;;5007315;28;20037;-77
2022/06/15 10:37:19;;;;;;;1.80;0.55;;;28.90;51.70;;;;;;5025560;28;20556;-78
2022/06/15 10:39:48;;;;;;;1.38;0.55;;;28.90;51.40;;;;;;5010364;28;20041;-77
2022/06/15 10:42:32;;;;;;;1.25;0.70;;;28.90;50.40;;;;;;5026251;28;20037;-78
2022/06/15 10:45:05;;;;;;;1.77;0.57;;;29.10;55.30;;;;;;5009962;28;20050;-77
2022/06/15 10:47:50;;;;;;;1.38;0.68;;;29.30;51.60;;;;;;5009636;28;20034;-78
2022/06/15 10:50:32;;;;;;;2.58;0.73;;;29.50;52.80;;;;;;5008071;28;20048;-78
2022/06/15 10:53:02;;;;;;;0.73;0.40;;;29.70;51.70;;;;;;5011904;28;20022;-78
2022/06/15 11:04:11;;;;;;;1.88;0.50;;;30.20;48.60;;;;;;5009770;28;20056;-79
2022/06/15 11:06:51;;;;;;;1.52;0.60;;;30.40;52.80;;;;;;5005569;28;20029;-78
2022/06/15 11:09:25;;;;;;;4.03;0.70;;;30.50;52.30;;;;;;5009490;28;20029;-79
2022/06/15 11:11:51;;;;;;;2.33;0.43;;;30.70;51.00;;;;;;5007246;28;20042;-78
2022/06/15 11:14:32;;;;;;;1.20;0.60;;;30.80;50.60;;;;;;5016455;28;20034;-78
2022/06/15 11:20:03;;;;;;;1.92;0.70;;;30.90;47.90;;;;;;5004089;28;20053;-79
2022/06/15 11:22:30;;;;;;;1.48;0.52;;;30.90;51.80;;;;;;5008673;28;20585;-79
2022/06/15 11:25:13;;;;;;;1.13;0.68;;;31.00;48.50;;;;;;5010673;28;20486;-79
2022/06/15 11:27:52;;;;;;;4.00;0.60;;;30.90;52.40;;;;;;5010073;28;20037;-79
2022/06/15 11:30:27;;;;;;;2.90;0.82;;;31.00;51.30;;;;;;5010244;28;20079;-79
2022/06/15 11:33:19;;;;;;;2.78;0.77;;;31.00;48.30;;;;;;5008456;28;20030;-79
2022/06/15 11:36:06;;;;;;;1.75;0.80;;;31.00;52.70;;;;;;5002019;28;20391;-78
2022/06/15 11:38:49;;;;;;;1.95;0.50;;;31.00;46.50;;;;;;5010589;28;20026;-79
2022/06/15 11:41:35;;;;;;;2.10;0.50;;;31.00;46.20;;;;;;5008331;28;20044;-79
2022/06/15 11:44:06;;;;;;;1.23;0.50;;;31.00;48.10;;;;;;5005812;28;20110;-79
2022/06/15 11:47:07;;;;;;;1.42;0.70;;;31.00;47.60;;;;;;5001658;28;20028;-80
2022/06/15 11:49:57;;;;;;;2.15;0.60;;;30.90;48.50;;;;;;5002967;28;20592;-79
2022/06/15 11:52:40;;;;;;;1.63;0.80;;;30.80;46.60;;;;;;5009940;28;20065;-81
2022/06/15 11:55:27;;;;;;;4.07;0.73;;;30.80;47.60;;;;;;5008620;28;20111;-80
2022/06/15 11:58:21;;;;;;;2.78;0.70;;;30.70;47.70;;;;;;5008265;28;20052;-80
2022/06/15 12:01:12;;;;;;;1.45;0.70;;;30.50;49.60;;;;;;5005891;28;20066;-80
2022/06/15 12:03:59;;;;;;;2.08;0.60;;;30.50;47.80;;;;;;5010179;28;20188;-80
2022/06/15 12:06:32;;;;;;;3.58;0.55;;;30.50;46.70;;;;;;5007948;28;20041;-80
2022/06/15 12:09:44;;;;;;;4.90;1.10;;;30.50;46.00;;;;;;5008513;28;20120;-79
2022/06/15 12:12:42;;;;;;;2.03;1.10;;;30.60;45.70;;;;;;5002313;28;20581;-80
2022/06/15 12:15:33;;;;;;;4.53;0.85;;;30.70;51.10;;;;;;5001606;28;20057;-79
2022/06/15 12:18:20;;;;;;;2.38;0.75;;;31.00;48.30;;;;;;5007575;28;20032;-80
2022/06/15 12:20:58;;;;;;;1.00;0.60;;;31.20;48.80;;;;;;5008305;28;20100;-80
2022/06/15 12:23:48;;;;;;;7.22;0.82;;;31.40;47.50;;;;;;5010063;28;20493;-80
2022/06/15 12:26:35;;;;;;;2.20;0.98;;;31.50;46.50;;;;;;5009333;28;20483;-80
2022/06/15 12:29:16;;;;;;;2.45;0.88;;;31.60;48.20;;;;;;5009777;28;20075;-80
2022/06/15 12:35:00;;;;;;;3.15;0.63;;;31.70;44.80;;;;;;5009474;28;20041;-81
2022/06/15 12:37:36;;;;;;;1.20;0.60;;;31.80;46.90;;;;;;5005730;28;20031;-79
2022/06/15 12:40:22;;;;;;;3.00;0.82;;;31.90;47.30;;;;;;5009884;28;20044;-80
2022/06/15 12:42:54;;;;;;;1.15;0.50;;;31.90;46.60;;;;;;5010972;28;20054;-80
2022/06/15 12:45:28;;;;;;;1.85;0.73;;;31.90;47.30;;;;;;5012643;28;20525;-82
2022/06/15 12:47:57;;;;;;;5.35;0.90;;;32.00;50.10;;;;;;5005811;28;20057;-80
2022/06/15 12:50:37;;;;;;;2.78;0.80;;;32.10;50.60;;;;;;5007790;28;20113;-81
2022/06/15 12:53:43;;;;;;;1.20;0.60;;;32.00;45.90;;;;;;5009874;28;20038;-80
2022/06/15 12:56:14;;;;;;;4.55;0.90;;;32.00;46.00;;;;;;4996383;28;20057;-80
2022/06/15 12:58:39;;;;;;;2.30;0.70;;;32.00;46.70;;;;;;5001389;28;20052;-79
2022/06/15 13:01:23;;;;;;;4.82;0.68;;;32.10;45.30;;;;;;5007342;28;20073;-80
2022/06/15 13:03:57;;;;;;;3.67;0.75;;;32.10;45.70;;;;;;5010148;28;20497;-81
2022/06/15 13:06:30;;;;;;;1.42;0.60;;;32.20;48.60;;;;;;5009424;28;20034;-80
2022/06/15 13:09:18;;;;;;;2.30;0.90;;;32.30;47.80;;;;;;5007752;28;20410;-81
2022/06/15 13:12:10;;;;;;;2.55;0.80;;;32.50;46.30;;;;;;5002995;28;20057;-80
2022/06/15 13:14:51;;;;;;;2.65;0.60;;;32.60;46.50;;;;;;5012650;28;20030;-81
2022/06/15 13:17:22;;;;;;;1.27;0.70;;;32.70;43.70;;;;;;5010698;28;20146;-80
2022/06/15 13:19:51;;;;;;;0.95;0.45;;;32.70;43.00;;;;;;5013254;28;20022;-81
2022/06/15 13:22:24;;;;;;;2.72;0.82;;;32.60;44.40;;;;;;5012806;28;20026;-80
2022/06/15 13:25:03;;;;;;;1.80;0.63;;;32.60;43.10;;;;;;5011117;28;20021;-81
2022/06/15 13:27:41;;;;;;;2.60;0.80;;;32.50;42.50;;;;;;5006376;28;20037;-80
2022/06/15 13:30:21;;;;;;;1.20;0.60;;;32.50;43.40;;;;;;5012433;28;20088;-81
2022/06/15 13:32:54;;;;;;;3.70;0.50;;;32.50;46.60;;;;;;5002554;28;20071;-81
2022/06/15 13:35:28;;;;;;;3.85;0.73;;;32.60;45.40;;;;;;5008196;28;20060;-80
2022/06/15 13:38:03;;;;;;;3.15;0.80;;;32.60;43.30;;;;;;5011013;28;20022;-80
2022/06/15 13:40:54;;;;;;;4.03;0.80;;;32.60;43.50;;;;;;5013125;28;20048;-82